sensor_id;sensor_type;location;lat;lon;timestamp;P1;durP1;ratioP1;P2;durP2;ratioP2
77146;SDS011;66121;52.584;9.694;2023-05-24T00:00:32;12.23;;;3.80;;
77146;SDS011;66121;52.584;9.694;2023-05-24T00:02:57;14.43;;;4.13;;
77146;SDS011;66121;52.584;9.694;2023-05-24T00:05:23;16.63;;;5.00;;
77146;SDS011;66121;52.584;9.694;2023-05-24T00:07:49;18.48;;;3.95;;
77146;SDS011;66121;52.584;9.694;2023-05-24T00:10:14;16.90;;;3.97;;
77146;SDS011;66121;52.584;9.694;2023-05-24T00:12:40;15.80;;;3.47;;
77146;SDS011;66121;52.584;9.694;2023-05-24T00:15:05;15.53;;;3.73;;
77146;SDS011;66121;52.584;9.694;2023-05-24T00:17:31;16.13;;;3.67;;
77146;SDS011;66121;52.584;9.694;2023-05-24T00:19:58;23.83;;;4.15;;
77146;SDS011;66121;52.584;9.694;2023-05-24T00:22:24;18.20;;;4.05;;
77146;SDS011;66121;52.584;9.694;2023-05-24T00:24:50;16.80;;;4.15;;
77146;SDS011;66121;52.584;9.694;2023-05-24T00:27:15;20.08;;;6.15;;
77146;SDS011;66121;52.584;9.694;2023-05-24T00:29:40;18.55;;;4.53;;
77146;SDS011;66121;52.584;9.694;2023-05-24T00:32:06;12.20;;;4.05;;
77146;SDS011;66121;52.584;9.694;2023-05-24T00:34:31;24.27;;;5.13;;
77146;SDS011;66121;52.584;9.694;2023-05-24T00:36:56;17.83;;;4.40;;
77146;SDS011;66121;52.584;9.694;2023-05-24T00:39:22;27.92;;;5.38;;
77146;SDS011;66121;52.584;9.694;2023-05-24T00:41:47;21.07;;;4.67;;
77146;SDS011;66121;52.584;9.694;2023-05-24T00:44:13;18.05;;;5.05;;
77146;SDS011;66121;52.584;9.694;2023-05-24T00:46:38;16.42;;;4.40;;
77146;SDS011;66121;52.584;9.694;2023-05-24T00:49:05;21.08;;;4.47;;
77146;SDS011;66121;52.584;9.694;2023-05-24T00:51:31;17.02;;;3.85;;
77146;SDS011;66121;52.584;9.694;2023-05-24T00:53:57;16.98;;;3.92;;
77146;SDS011;66121;52.584;9.694;2023-05-24T00:56:23;23.10;;;4.88;;
77146;SDS011;66121;52.584;9.694;2023-05-24T00:58:50;15.95;;;4.90;;
77146;SDS011;66121;52.584;9.694;2023-05-24T01:01:18;14.63;;;3.80;;
77146;SDS011;66121;52.584;9.694;2023-05-24T01:03:44;22.48;;;5.13;;
77146;SDS011;66121;52.584;9.694;2023-05-24T01:06:10;15.95;;;4.53;;
77146;SDS011;66121;52.584;9.694;2023-05-24T01:08:54;14.65;;;4.00;;
77146;SDS011;66121;52.584;9.694;2023-05-24T01:17:05;18.83;;;5.13;;
77146;SDS011;66121;52.584;9.694;2023-05-24T01:19:44;18.55;;;4.82;;
77146;SDS011;66121;52.584;9.694;2023-05-24T01:24:55;18.38;;;4.68;;
77146;SDS011;66121;52.584;9.694;2023-05-24T01:27:27;20.48;;;4.63;;
77146;SDS011;66121;52.584;9.694;2023-05-24T01:29:55;22.17;;;5.15;;
77146;SDS011;66121;52.584;9.694;2023-05-24T01:32:22;22.50;;;4.95;;
77146;SDS011;66121;52.584;9.694;2023-05-24T01:34:48;22.58;;;5.65;;
77146;SDS011;66121;52.584;9.694;2023-05-24T01:37:13;23.03;;;5.80;;
77146;SDS011;66121;52.584;9.694;2023-05-24T01:39:38;22.65;;;4.38;;
77146;SDS011;66121;52.584;9.694;2023-05-24T01:42:12;19.58;;;4.65;;
77146;SDS011;66121;52.584;9.694;2023-05-24T01:44:58;19.02;;;4.85;;
77146;SDS011;66121;52.584;9.694;2023-05-24T01:47:33;21.00;;;4.90;;
77146;SDS011;66121;52.584;9.694;2023-05-24T01:50:33;19.63;;;4.90;;
77146;SDS011;66121;52.584;9.694;2023-05-24T01:53:02;25.30;;;4.40;;
77146;SDS011;66121;52.584;9.694;2023-05-24T01:55:31;14.75;;;5.28;;
77146;SDS011;66121;52.584;9.694;2023-05-24T01:57:59;29.27;;;5.13;;
77146;SDS011;66121;52.584;9.694;2023-05-24T02:00:26;16.30;;;5.32;;
77146;SDS011;66121;52.584;9.694;2023-05-24T02:02:53;18.17;;;5.47;;
77146;SDS011;66121;52.584;9.694;2023-05-24T02:05:19;16.50;;;4.78;;
77146;SDS011;66121;52.584;9.694;2023-05-24T02:07:45;19.40;;;5.32;;
77146;SDS011;66121;52.584;9.694;2023-05-24T02:10:10;26.17;;;5.27;;
77146;SDS011;66121;52.584;9.694;2023-05-24T02:12:36;27.47;;;6.03;;
77146;SDS011;66121;52.584;9.694;2023-05-24T02:15:01;20.08;;;5.47;;
77146;SDS011;66121;52.584;9.694;2023-05-24T02:17:26;19.95;;;5.68;;
77146;SDS011;66121;52.584;9.694;2023-05-24T02:19:52;18.03;;;5.37;;
77146;SDS011;66121;52.584;9.694;2023-05-24T02:22:17;22.00;;;5.10;;
77146;SDS011;66121;52.584;9.694;2023-05-24T02:24:42;21.15;;;5.20;;
77146;SDS011;66121;52.584;9.694;2023-05-24T02:27:08;18.57;;;5.87;;
77146;SDS011;66121;52.584;9.694;2023-05-24T02:29:33;17.57;;;4.57;;
77146;SDS011;66121;52.584;9.694;2023-05-24T02:31:59;14.98;;;5.10;;
77146;SDS011;66121;52.584;9.694;2023-05-24T02:34:24;22.13;;;5.35;;
77146;SDS011;66121;52.584;9.694;2023-05-24T02:36:49;20.48;;;5.35;;
77146;SDS011;66121;52.584;9.694;2023-05-24T02:39:15;20.05;;;5.05;;
77146;SDS011;66121;52.584;9.694;2023-05-24T02:41:41;19.52;;;4.35;;
77146;SDS011;66121;52.584;9.694;2023-05-24T02:44:06;20.40;;;5.55;;
77146;SDS011;66121;52.584;9.694;2023-05-24T02:46:32;34.07;;;6.40;;
77146;SDS011;66121;52.584;9.694;2023-05-24T02:48:57;22.95;;;5.93;;
77146;SDS011;66121;52.584;9.694;2023-05-24T02:51:23;24.90;;;6.10;;
77146;SDS011;66121;52.584;9.694;2023-05-24T02:53:48;19.55;;;5.80;;
77146;SDS011;66121;52.584;9.694;2023-05-24T02:56:14;19.73;;;5.38;;
77146;SDS011;66121;52.584;9.694;2023-05-24T02:58:42;27.85;;;6.05;;
77146;SDS011;66121;52.584;9.694;2023-05-24T03:01:09;23.95;;;5.60;;
77146;SDS011;66121;52.584;9.694;2023-05-24T03:03:36;25.85;;;5.20;;
77146;SDS011;66121;52.584;9.694;2023-05-24T03:06:02;16.95;;;5.80;;
77146;SDS011;66121;52.584;9.694;2023-05-24T03:08:27;23.42;;;5.28;;
77146;SDS011;66121;52.584;9.694;2023-05-24T03:10:53;21.98;;;5.90;;
77146;SDS011;66121;52.584;9.694;2023-05-24T03:13:18;22.57;;;5.90;;
77146;SDS011;66121;52.584;9.694;2023-05-24T03:15:43;27.42;;;5.30;;
77146;SDS011;66121;52.584;9.694;2023-05-24T03:18:09;21.50;;;4.90;;
77146;SDS011;66121;52.584;9.694;2023-05-24T03:20:34;33.47;;;6.27;;
77146;SDS011;66121;52.584;9.694;2023-05-24T03:22:59;23.17;;;5.73;;
77146;SDS011;66121;52.584;9.694;2023-05-24T03:25:24;27.02;;;5.68;;
77146;SDS011;66121;52.584;9.694;2023-05-24T03:27:51;19.77;;;6.80;;
77146;SDS011;66121;52.584;9.694;2023-05-24T03:30:16;20.02;;;5.45;;
77146;SDS011;66121;52.584;9.694;2023-05-24T03:32:41;22.43;;;6.57;;
77146;SDS011;66121;52.584;9.694;2023-05-24T03:35:07;23.10;;;6.20;;
77146;SDS011;66121;52.584;9.694;2023-05-24T03:37:35;24.27;;;6.15;;
77146;SDS011;66121;52.584;9.694;2023-05-24T03:40:01;22.45;;;5.70;;
77146;SDS011;66121;52.584;9.694;2023-05-24T03:42:29;23.88;;;6.45;;
77146;SDS011;66121;52.584;9.694;2023-05-24T03:44:54;24.50;;;6.35;;
77146;SDS011;66121;52.584;9.694;2023-05-24T03:47:19;23.93;;;5.80;;
77146;SDS011;66121;52.584;9.694;2023-05-24T03:49:45;22.35;;;6.63;;
77146;SDS011;66121;52.584;9.694;2023-05-24T03:52:10;35.20;;;6.35;;
77146;SDS011;66121;52.584;9.694;2023-05-24T03:54:36;26.83;;;5.40;;
77146;SDS011;66121;52.584;9.694;2023-05-24T03:57:01;21.77;;;5.47;;
77146;SDS011;66121;52.584;9.694;2023-05-24T03:59:26;20.73;;;5.32;;
77146;SDS011;66121;52.584;9.694;2023-05-24T04:01:52;33.35;;;6.28;;
77146;SDS011;66121;52.584;9.694;2023-05-24T04:04:17;21.90;;;5.65;;
77146;SDS011;66121;52.584;9.694;2023-05-24T04:06:43;20.30;;;4.97;;
77146;SDS011;66121;52.584;9.694;2023-05-24T04:09:08;25.60;;;5.63;;
77146;SDS011;66121;52.584;9.694;2023-05-24T04:11:34;18.00;;;6.28;;
77146;SDS011;66121;52.584;9.694;2023-05-24T04:14:00;20.42;;;5.60;;
77146;SDS011;66121;52.584;9.694;2023-05-24T04:16:25;28.70;;;6.15;;
77146;SDS011;66121;52.584;9.694;2023-05-24T04:18:51;25.27;;;5.07;;
77146;SDS011;66121;52.584;9.694;2023-05-24T04:21:19;20.05;;;5.40;;
77146;SDS011;66121;52.584;9.694;2023-05-24T04:23:44;34.75;;;6.35;;
77146;SDS011;66121;52.584;9.694;2023-05-24T04:26:10;20.67;;;5.63;;
77146;SDS011;66121;52.584;9.694;2023-05-24T04:28:36;18.67;;;6.18;;
77146;SDS011;66121;52.584;9.694;2023-05-24T04:31:03;25.15;;;5.35;;
77146;SDS011;66121;52.584;9.694;2023-05-24T04:33:30;21.02;;;5.40;;
77146;SDS011;66121;52.584;9.694;2023-05-24T04:35:56;20.10;;;5.80;;
77146;SDS011;66121;52.584;9.694;2023-05-24T04:38:25;21.95;;;5.03;;
77146;SDS011;66121;52.584;9.694;2023-05-24T04:40:53;27.30;;;5.93;;
77146;SDS011;66121;52.584;9.694;2023-05-24T04:43:18;21.63;;;6.20;;
77146;SDS011;66121;52.584;9.694;2023-05-24T04:45:44;20.50;;;5.47;;
77146;SDS011;66121;52.584;9.694;2023-05-24T04:48:09;24.88;;;6.18;;
77146;SDS011;66121;52.584;9.694;2023-05-24T04:50:35;20.83;;;5.18;;
77146;SDS011;66121;52.584;9.694;2023-05-24T04:53:01;20.88;;;4.85;;
77146;SDS011;66121;52.584;9.694;2023-05-24T04:55:27;20.20;;;5.68;;
77146;SDS011;66121;52.584;9.694;2023-05-24T04:57:52;23.97;;;5.50;;
77146;SDS011;66121;52.584;9.694;2023-05-24T05:00:17;16.20;;;4.80;;
77146;SDS011;66121;52.584;9.694;2023-05-24T05:02:43;21.52;;;5.10;;
77146;SDS011;66121;52.584;9.694;2023-05-24T05:05:08;24.90;;;6.37;;
77146;SDS011;66121;52.584;9.694;2023-05-24T05:07:34;17.13;;;5.25;;
77146;SDS011;66121;52.584;9.694;2023-05-24T05:10:00;26.08;;;5.70;;
77146;SDS011;66121;52.584;9.694;2023-05-24T05:12:26;17.00;;;5.30;;
77146;SDS011;66121;52.584;9.694;2023-05-24T05:14:51;31.00;;;6.33;;
77146;SDS011;66121;52.584;9.694;2023-05-24T05:17:16;19.33;;;6.10;;
77146;SDS011;66121;52.584;9.694;2023-05-24T05:19:41;22.48;;;5.80;;
77146;SDS011;66121;52.584;9.694;2023-05-24T05:22:07;28.63;;;5.97;;
77146;SDS011;66121;52.584;9.694;2023-05-24T05:24:32;28.57;;;6.70;;
77146;SDS011;66121;52.584;9.694;2023-05-24T05:26:57;21.13;;;5.43;;
77146;SDS011;66121;52.584;9.694;2023-05-24T05:29:23;21.63;;;5.43;;
77146;SDS011;66121;52.584;9.694;2023-05-24T05:31:48;26.00;;;6.13;;
77146;SDS011;66121;52.584;9.694;2023-05-24T05:34:13;21.90;;;5.97;;
77146;SDS011;66121;52.584;9.694;2023-05-24T05:36:38;26.27;;;5.32;;
77146;SDS011;66121;52.584;9.694;2023-05-24T05:39:08;16.65;;;4.70;;
77146;SDS011;66121;52.584;9.694;2023-05-24T05:41:35;22.90;;;6.55;;
77146;SDS011;66121;52.584;9.694;2023-05-24T05:44:01;21.10;;;5.35;;
77146;SDS011;66121;52.584;9.694;2023-05-24T05:46:27;28.83;;;6.18;;
77146;SDS011;66121;52.584;9.694;2023-05-24T05:48:52;18.87;;;5.10;;
77146;SDS011;66121;52.584;9.694;2023-05-24T05:51:17;13.43;;;4.45;;
77146;SDS011;66121;52.584;9.694;2023-05-24T05:53:43;22.60;;;6.23;;
77146;SDS011;66121;52.584;9.694;2023-05-24T05:56:08;21.33;;;6.33;;
77146;SDS011;66121;52.584;9.694;2023-05-24T05:58:33;22.17;;;5.97;;
77146;SDS011;66121;52.584;9.694;2023-05-24T06:00:58;28.70;;;6.13;;
77146;SDS011;66121;52.584;9.694;2023-05-24T06:03:24;18.60;;;5.30;;
77146;SDS011;66121;52.584;9.694;2023-05-24T06:05:49;19.30;;;5.70;;
77146;SDS011;66121;52.584;9.694;2023-05-24T06:08:14;22.80;;;5.43;;
77146;SDS011;66121;52.584;9.694;2023-05-24T06:10:39;26.97;;;6.03;;
77146;SDS011;66121;52.584;9.694;2023-05-24T06:13:05;20.97;;;5.37;;
77146;SDS011;66121;52.584;9.694;2023-05-24T06:15:30;27.17;;;6.30;;
77146;SDS011;66121;52.584;9.694;2023-05-24T06:17:57;15.93;;;4.88;;
77146;SDS011;66121;52.584;9.694;2023-05-24T06:20:24;27.48;;;5.65;;
77146;SDS011;66121;52.584;9.694;2023-05-24T06:22:50;24.90;;;5.57;;
77146;SDS011;66121;52.584;9.694;2023-05-24T06:25:16;16.50;;;4.78;;
77146;SDS011;66121;52.584;9.694;2023-05-24T06:27:43;21.38;;;5.05;;
77146;SDS011;66121;52.584;9.694;2023-05-24T06:30:08;19.60;;;4.97;;
77146;SDS011;66121;52.584;9.694;2023-05-24T06:32:34;17.83;;;4.47;;
77146;SDS011;66121;52.584;9.694;2023-05-24T06:35:00;15.50;;;4.40;;
77146;SDS011;66121;52.584;9.694;2023-05-24T06:37:25;18.98;;;5.00;;
77146;SDS011;66121;52.584;9.694;2023-05-24T06:39:50;17.13;;;4.20;;
77146;SDS011;66121;52.584;9.694;2023-05-24T06:42:16;17.67;;;4.25;;
77146;SDS011;66121;52.584;9.694;2023-05-24T06:44:41;20.93;;;4.53;;
77146;SDS011;66121;52.584;9.694;2023-05-24T06:47:06;23.92;;;5.55;;
77146;SDS011;66121;52.584;9.694;2023-05-24T06:49:33;19.23;;;4.50;;
77146;SDS011;66121;52.584;9.694;2023-05-24T06:51:58;22.65;;;4.93;;
77146;SDS011;66121;52.584;9.694;2023-05-24T06:54:23;21.20;;;4.73;;
77146;SDS011;66121;52.584;9.694;2023-05-24T06:56:49;22.15;;;4.40;;
77146;SDS011;66121;52.584;9.694;2023-05-24T06:59:15;21.05;;;5.07;;
77146;SDS011;66121;52.584;9.694;2023-05-24T07:01:40;21.63;;;5.30;;
77146;SDS011;66121;52.584;9.694;2023-05-24T07:04:07;19.20;;;4.50;;
77146;SDS011;66121;52.584;9.694;2023-05-24T07:06:33;24.90;;;4.78;;
77146;SDS011;66121;52.584;9.694;2023-05-24T07:08:58;22.15;;;4.60;;
77146;SDS011;66121;52.584;9.694;2023-05-24T07:11:25;17.85;;;4.53;;
77146;SDS011;66121;52.584;9.694;2023-05-24T07:13:52;23.00;;;5.57;;
77146;SDS011;66121;52.584;9.694;2023-05-24T07:16:17;22.27;;;6.68;;
77146;SDS011;66121;52.584;9.694;2023-05-24T07:18:42;19.65;;;5.80;;
77146;SDS011;66121;52.584;9.694;2023-05-24T07:21:08;21.30;;;5.10;;
77146;SDS011;66121;52.584;9.694;2023-05-24T07:23:33;23.97;;;5.50;;
77146;SDS011;66121;52.584;9.694;2023-05-24T07:25:59;19.95;;;4.82;;
77146;SDS011;66121;52.584;9.694;2023-05-24T07:28:24;23.48;;;5.75;;
77146;SDS011;66121;52.584;9.694;2023-05-24T07:30:50;26.45;;;5.60;;
77146;SDS011;66121;52.584;9.694;2023-05-24T07:33:15;24.83;;;5.75;;
77146;SDS011;66121;52.584;9.694;2023-05-24T07:35:40;25.60;;;5.30;;
77146;SDS011;66121;52.584;9.694;2023-05-24T07:38:06;17.38;;;4.82;;
77146;SDS011;66121;52.584;9.694;2023-05-24T07:40:31;18.88;;;5.65;;
77146;SDS011;66121;52.584;9.694;2023-05-24T07:42:57;20.63;;;5.33;;
77146;SDS011;66121;52.584;9.694;2023-05-24T07:45:22;18.50;;;5.07;;
77146;SDS011;66121;52.584;9.694;2023-05-24T07:47:47;28.83;;;7.37;;
77146;SDS011;66121;52.584;9.694;2023-05-24T07:50:12;22.13;;;5.40;;
77146;SDS011;66121;52.584;9.694;2023-05-24T07:52:38;22.07;;;6.23;;
77146;SDS011;66121;52.584;9.694;2023-05-24T07:55:03;25.50;;;5.43;;
77146;SDS011;66121;52.584;9.694;2023-05-24T07:57:30;23.52;;;5.55;;
77146;SDS011;66121;52.584;9.694;2023-05-24T07:59:55;25.97;;;6.97;;
77146;SDS011;66121;52.584;9.694;2023-05-24T08:02:20;23.50;;;5.30;;
77146;SDS011;66121;52.584;9.694;2023-05-24T08:04:46;29.42;;;5.25;;
77146;SDS011;66121;52.584;9.694;2023-05-24T08:07:12;19.00;;;5.32;;
77146;SDS011;66121;52.584;9.694;2023-05-24T08:09:38;19.05;;;5.60;;
77146;SDS011;66121;52.584;9.694;2023-05-24T08:12:04;21.85;;;5.85;;
77146;SDS011;66121;52.584;9.694;2023-05-24T08:14:30;21.80;;;6.20;;
77146;SDS011;66121;52.584;9.694;2023-05-24T08:16:56;27.50;;;5.57;;
77146;SDS011;66121;52.584;9.694;2023-05-24T08:19:21;16.93;;;5.50;;
77146;SDS011;66121;52.584;9.694;2023-05-24T08:21:47;18.65;;;5.32;;
77146;SDS011;66121;52.584;9.694;2023-05-24T08:24:12;20.35;;;6.00;;
77146;SDS011;66121;52.584;9.694;2023-05-24T08:26:38;19.70;;;4.87;;
77146;SDS011;66121;52.584;9.694;2023-05-24T08:29:03;25.33;;;5.73;;
77146;SDS011;66121;52.584;9.694;2023-05-24T08:31:29;18.38;;;6.03;;
77146;SDS011;66121;52.584;9.694;2023-05-24T08:33:54;28.83;;;6.57;;
77146;SDS011;66121;52.584;9.694;2023-05-24T08:36:21;18.88;;;5.22;;
77146;SDS011;66121;52.584;9.694;2023-05-24T08:38:46;24.92;;;6.90;;
77146;SDS011;66121;52.584;9.694;2023-05-24T08:41:12;21.30;;;6.05;;
77146;SDS011;66121;52.584;9.694;2023-05-24T08:43:37;18.60;;;4.80;;
77146;SDS011;66121;52.584;9.694;2023-05-24T08:46:03;15.50;;;5.15;;
77146;SDS011;66121;52.584;9.694;2023-05-24T08:48:29;19.95;;;5.88;;
77146;SDS011;66121;52.584;9.694;2023-05-24T08:50:56;21.48;;;6.22;;
77146;SDS011;66121;52.584;9.694;2023-05-24T08:53:22;23.13;;;5.60;;
77146;SDS011;66121;52.584;9.694;2023-05-24T08:55:48;19.13;;;5.22;;
77146;SDS011;66121;52.584;9.694;2023-05-24T08:58:17;18.52;;;6.18;;
77146;SDS011;66121;52.584;9.694;2023-05-24T09:00:43;18.85;;;6.10;;
77146;SDS011;66121;52.584;9.694;2023-05-24T09:03:08;24.73;;;6.50;;
77146;SDS011;66121;52.584;9.694;2023-05-24T09:05:35;19.98;;;7.22;;
77146;SDS011;66121;52.584;9.694;2023-05-24T09:08:01;25.90;;;7.22;;
77146;SDS011;66121;52.584;9.694;2023-05-24T09:10:28;24.33;;;7.38;;
77146;SDS011;66121;52.584;9.694;2023-05-24T09:12:54;21.27;;;6.43;;
77146;SDS011;66121;52.584;9.694;2023-05-24T09:15:21;28.55;;;7.28;;
77146;SDS011;66121;52.584;9.694;2023-05-24T09:17:47;24.52;;;7.30;;
77146;SDS011;66121;52.584;9.694;2023-05-24T09:20:13;22.05;;;7.35;;
77146;SDS011;66121;52.584;9.694;2023-05-24T09:22:39;22.90;;;7.72;;
77146;SDS011;66121;52.584;9.694;2023-05-24T09:25:06;20.08;;;7.00;;
77146;SDS011;66121;52.584;9.694;2023-05-24T09:27:32;26.48;;;7.57;;
77146;SDS011;66121;52.584;9.694;2023-05-24T09:30:02;17.85;;;6.82;;
77146;SDS011;66121;52.584;9.694;2023-05-24T09:32:30;28.40;;;8.25;;
77146;SDS011;66121;52.584;9.694;2023-05-24T09:34:56;20.52;;;7.60;;
77146;SDS011;66121;52.584;9.694;2023-05-24T09:37:23;28.73;;;7.30;;
77146;SDS011;66121;52.584;9.694;2023-05-24T09:39:51;22.17;;;7.82;;
77146;SDS011;66121;52.584;9.694;2023-05-24T09:42:18;19.90;;;6.43;;
77146;SDS011;66121;52.584;9.694;2023-05-24T09:45:03;30.58;;;7.70;;
77146;SDS011;66121;52.584;9.694;2023-05-24T09:47:41;34.65;;;7.55;;
77146;SDS011;66121;52.584;9.694;2023-05-24T09:50:11;29.88;;;8.05;;
77146;SDS011;66121;52.584;9.694;2023-05-24T09:52:39;25.48;;;6.75;;
77146;SDS011;66121;52.584;9.694;2023-05-24T09:55:15;24.27;;;7.30;;
77146;SDS011;66121;52.584;9.694;2023-05-24T09:57:42;28.05;;;7.15;;
77146;SDS011;66121;52.584;9.694;2023-05-24T10:00:08;28.10;;;7.10;;
77146;SDS011;66121;52.584;9.694;2023-05-24T10:02:43;29.05;;;7.25;;
77146;SDS011;66121;52.584;9.694;2023-05-24T10:05:10;21.42;;;5.78;;
77146;SDS011;66121;52.584;9.694;2023-05-24T10:07:36;18.83;;;6.38;;
77146;SDS011;66121;52.584;9.694;2023-05-24T10:10:03;20.42;;;6.68;;
77146;SDS011;66121;52.584;9.694;2023-05-24T10:12:29;24.17;;;6.60;;
77146;SDS011;66121;52.584;9.694;2023-05-24T10:14:55;23.90;;;7.13;;
77146;SDS011;66121;52.584;9.694;2023-05-24T10:17:22;24.05;;;7.40;;
77146;SDS011;66121;52.584;9.694;2023-05-24T10:19:51;24.77;;;6.82;;
77146;SDS011;66121;52.584;9.694;2023-05-24T10:22:17;25.05;;;6.10;;
77146;SDS011;66121;52.584;9.694;2023-05-24T10:24:47;21.17;;;6.60;;
77146;SDS011;66121;52.584;9.694;2023-05-24T10:27:16;32.25;;;7.22;;
77146;SDS011;66121;52.584;9.694;2023-05-24T10:32:24;25.65;;;7.97;;
77146;SDS011;66121;52.584;9.694;2023-05-24T10:34:55;26.55;;;7.47;;
77146;SDS011;66121;52.584;9.694;2023-05-24T10:37:23;25.17;;;7.88;;
77146;SDS011;66121;52.584;9.694;2023-05-24T10:39:49;22.23;;;6.07;;
77146;SDS011;66121;52.584;9.694;2023-05-24T10:42:14;23.15;;;6.13;;
77146;SDS011;66121;52.584;9.694;2023-05-24T10:44:41;22.17;;;6.30;;
77146;SDS011;66121;52.584;9.694;2023-05-24T10:49:33;21.42;;;6.10;;
77146;SDS011;66121;52.584;9.694;2023-05-24T10:52:09;21.25;;;6.45;;
77146;SDS011;66121;52.584;9.694;2023-05-24T10:54:34;18.48;;;6.38;;
77146;SDS011;66121;52.584;9.694;2023-05-24T10:57:01;14.82;;;5.60;;
77146;SDS011;66121;52.584;9.694;2023-05-24T10:59:29;12.45;;;5.15;;
77146;SDS011;66121;52.584;9.694;2023-05-24T11:01:59;18.77;;;5.40;;
77146;SDS011;66121;52.584;9.694;2023-05-24T11:04:26;19.73;;;5.70;;
77146;SDS011;66121;52.584;9.694;2023-05-24T11:06:56;16.88;;;6.18;;
77146;SDS011;66121;52.584;9.694;2023-05-24T11:09:25;17.52;;;6.45;;
77146;SDS011;66121;52.584;9.694;2023-05-24T11:11:56;23.60;;;7.45;;
77146;SDS011;66121;52.584;9.694;2023-05-24T11:14:26;21.20;;;5.90;;
77146;SDS011;66121;52.584;9.694;2023-05-24T11:16:52;17.23;;;5.78;;
77146;SDS011;66121;52.584;9.694;2023-05-24T11:19:23;18.85;;;5.72;;
77146;SDS011;66121;52.584;9.694;2023-05-24T11:21:53;30.42;;;7.43;;
77146;SDS011;66121;52.584;9.694;2023-05-24T11:24:22;19.88;;;6.80;;
77146;SDS011;66121;52.584;9.694;2023-05-24T11:26:49;17.23;;;5.80;;
77146;SDS011;66121;52.584;9.694;2023-05-24T11:29:15;22.20;;;6.78;;
77146;SDS011;66121;52.584;9.694;2023-05-24T11:31:50;20.67;;;6.38;;
77146;SDS011;66121;52.584;9.694;2023-05-24T11:34:21;21.27;;;6.25;;
77146;SDS011;66121;52.584;9.694;2023-05-24T11:36:48;18.05;;;6.15;;
77146;SDS011;66121;52.584;9.694;2023-05-24T11:39:16;23.52;;;7.03;;
77146;SDS011;66121;52.584;9.694;2023-05-24T11:41:42;16.00;;;5.95;;
77146;SDS011;66121;52.584;9.694;2023-05-24T11:44:08;23.15;;;7.60;;
77146;SDS011;66121;52.584;9.694;2023-05-24T11:46:35;19.52;;;6.22;;
77146;SDS011;66121;52.584;9.694;2023-05-24T11:49:03;17.15;;;6.70;;
77146;SDS011;66121;52.584;9.694;2023-05-24T11:51:29;19.27;;;6.15;;
77146;SDS011;66121;52.584;9.694;2023-05-24T11:53:56;21.10;;;7.38;;
77146;SDS011;66121;52.584;9.694;2023-05-24T11:56:23;13.25;;;5.75;;
77146;SDS011;66121;52.584;9.694;2023-05-24T11:58:58;16.83;;;6.43;;
77146;SDS011;66121;52.584;9.694;2023-05-24T12:01:32;17.77;;;5.65;;
77146;SDS011;66121;52.584;9.694;2023-05-24T12:03:58;18.10;;;6.43;;
77146;SDS011;66121;52.584;9.694;2023-05-24T12:06:23;17.43;;;5.00;;
77146;SDS011;66121;52.584;9.694;2023-05-24T12:08:58;13.27;;;5.72;;
77146;SDS011;66121;52.584;9.694;2023-05-24T12:11:23;12.60;;;5.70;;
77146;SDS011;66121;52.584;9.694;2023-05-24T12:13:49;15.33;;;5.93;;
77146;SDS011;66121;52.584;9.694;2023-05-24T12:16:14;13.45;;;5.50;;
77146;SDS011;66121;52.584;9.694;2023-05-24T12:18:40;10.27;;;4.80;;
77146;SDS011;66121;52.584;9.694;2023-05-24T12:21:07;25.52;;;5.30;;
77146;SDS011;66121;52.584;9.694;2023-05-24T12:23:35;15.80;;;5.13;;
77146;SDS011;66121;52.584;9.694;2023-05-24T12:26:02;15.25;;;4.60;;
77146;SDS011;66121;52.584;9.694;2023-05-24T12:28:31;14.02;;;5.15;;
77146;SDS011;66121;52.584;9.694;2023-05-24T12:31:01;13.27;;;4.43;;
77146;SDS011;66121;52.584;9.694;2023-05-24T12:33:27;9.95;;;3.88;;
77146;SDS011;66121;52.584;9.694;2023-05-24T12:35:53;8.63;;;3.80;;
77146;SDS011;66121;52.584;9.694;2023-05-24T12:38:18;11.85;;;4.20;;
77146;SDS011;66121;52.584;9.694;2023-05-24T12:40:49;14.25;;;3.70;;
77146;SDS011;66121;52.584;9.694;2023-05-24T12:43:15;9.80;;;4.60;;
77146;SDS011;66121;52.584;9.694;2023-05-24T12:45:41;11.55;;;5.20;;
77146;SDS011;66121;52.584;9.694;2023-05-24T12:48:06;13.43;;;4.43;;
77146;SDS011;66121;52.584;9.694;2023-05-24T12:50:32;12.18;;;4.20;;
77146;SDS011;66121;52.584;9.694;2023-05-24T12:52:58;11.20;;;4.57;;
77146;SDS011;66121;52.584;9.694;2023-05-24T12:55:24;11.98;;;4.93;;
77146;SDS011;66121;52.584;9.694;2023-05-24T12:57:51;11.60;;;4.80;;
77146;SDS011;66121;52.584;9.694;2023-05-24T13:00:18;16.40;;;5.65;;
77146;SDS011;66121;52.584;9.694;2023-05-24T13:02:45;10.93;;;4.18;;
77146;SDS011;66121;52.584;9.694;2023-05-24T13:05:10;11.02;;;4.57;;
77146;SDS011;66121;52.584;9.694;2023-05-24T13:07:36;10.90;;;4.03;;
77146;SDS011;66121;52.584;9.694;2023-05-24T13:10:01;15.25;;;5.35;;
77146;SDS011;66121;52.584;9.694;2023-05-24T13:12:27;11.02;;;4.32;;
77146;SDS011;66121;52.584;9.694;2023-05-24T13:14:52;15.50;;;4.53;;
77146;SDS011;66121;52.584;9.694;2023-05-24T13:17:18;12.35;;;5.22;;
77146;SDS011;66121;52.584;9.694;2023-05-24T13:19:44;16.52;;;5.78;;
77146;SDS011;66121;52.584;9.694;2023-05-24T13:22:09;17.88;;;5.78;;
77146;SDS011;66121;52.584;9.694;2023-05-24T13:24:35;9.80;;;4.95;;
77146;SDS011;66121;52.584;9.694;2023-05-24T13:27:00;17.10;;;5.57;;
77146;SDS011;66121;52.584;9.694;2023-05-24T13:29:27;16.08;;;5.70;;
77146;SDS011;66121;52.584;9.694;2023-05-24T13:31:52;14.48;;;5.95;;
77146;SDS011;66121;52.584;9.694;2023-05-24T13:34:17;16.48;;;5.40;;
77146;SDS011;66121;52.584;9.694;2023-05-24T13:36:43;18.13;;;5.72;;
77146;SDS011;66121;52.584;9.694;2023-05-24T13:39:09;12.65;;;4.45;;
77146;SDS011;66121;52.584;9.694;2023-05-24T13:41:35;12.85;;;5.07;;
77146;SDS011;66121;52.584;9.694;2023-05-24T13:44:01;13.48;;;5.75;;
77146;SDS011;66121;52.584;9.694;2023-05-24T13:46:27;18.98;;;5.70;;
77146;SDS011;66121;52.584;9.694;2023-05-24T13:48:53;17.13;;;5.40;;
77146;SDS011;66121;52.584;9.694;2023-05-24T13:51:19;16.27;;;5.07;;
77146;SDS011;66121;52.584;9.694;2023-05-24T13:53:46;12.98;;;4.90;;
77146;SDS011;66121;52.584;9.694;2023-05-24T13:56:12;18.90;;;5.93;;
77146;SDS011;66121;52.584;9.694;2023-05-24T13:58:37;21.50;;;5.75;;
77146;SDS011;66121;52.584;9.694;2023-05-24T14:01:03;13.10;;;4.63;;
77146;SDS011;66121;52.584;9.694;2023-05-24T14:03:28;19.65;;;6.93;;
77146;SDS011;66121;52.584;9.694;2023-05-24T14:05:54;20.70;;;5.82;;
77146;SDS011;66121;52.584;9.694;2023-05-24T14:08:19;13.57;;;5.40;;
77146;SDS011;66121;52.584;9.694;2023-05-24T14:10:44;13.43;;;5.10;;
77146;SDS011;66121;52.584;9.694;2023-05-24T14:13:12;18.52;;;6.20;;
77146;SDS011;66121;52.584;9.694;2023-05-24T14:15:37;19.63;;;7.03;;
77146;SDS011;66121;52.584;9.694;2023-05-24T14:18:03;19.58;;;5.78;;
77146;SDS011;66121;52.584;9.694;2023-05-24T14:20:31;20.65;;;6.78;;
77146;SDS011;66121;52.584;9.694;2023-05-24T14:22:58;18.20;;;6.18;;
77146;SDS011;66121;52.584;9.694;2023-05-24T14:25:28;18.30;;;7.20;;
77146;SDS011;66121;52.584;9.694;2023-05-24T14:27:55;19.35;;;7.65;;
77146;SDS011;66121;52.584;9.694;2023-05-24T14:30:20;23.48;;;8.05;;
77146;SDS011;66121;52.584;9.694;2023-05-24T14:32:45;15.27;;;7.33;;
77146;SDS011;66121;52.584;9.694;2023-05-24T14:35:11;27.00;;;8.10;;
77146;SDS011;66121;52.584;9.694;2023-05-24T14:37:36;17.77;;;6.87;;
77146;SDS011;66121;52.584;9.694;2023-05-24T14:40:01;19.37;;;7.40;;
77146;SDS011;66121;52.584;9.694;2023-05-24T14:42:28;20.50;;;7.43;;
77146;SDS011;66121;52.584;9.694;2023-05-24T14:44:53;18.03;;;7.90;;